sensor_id;sensor_type;location;lat;lon;timestamp;pressure;altitude;pressure_sealevel;temperature;humidity
56374;BME280;58212;47.034;7.376;2023-11-19T00:01:43;95781.09;;;4.70;94.14
56374;BME280;58212;47.034;7.376;2023-11-19T00:04:10;95774.03;;;4.71;94.33
56374;BME280;58212;47.034;7.376;2023-11-19T00:06:38;95762.25;;;4.60;94.25
56374;BME280;58212;47.034;7.376;2023-11-19T00:09:08;95751.88;;;4.52;94.09
56374;BME280;58212;47.034;7.376;2023-11-19T00:11:38;95745.47;;;4.55;94.10
56374;BME280;58212;47.034;7.376;2023-11-19T00:14:07;95732.59;;;4.60;94.39
56374;BME280;58212;47.034;7.376;2023-11-19T00:16:34;95732.31;;;4.69;94.00
56374;BME280;58212;47.034;7.376;2023-11-19T00:19:01;95741.16;;;4.68;94.26
56374;BME280;58212;47.034;7.376;2023-11-19T00:21:29;95752.56;;;4.61;94.18
56374;BME280;58212;47.034;7.376;2023-11-19T00:23:57;95745.47;;;4.55;94.15
56374;BME280;58212;47.034;7.376;2023-11-19T00:26:24;95738.34;;;4.49;94.60
56374;BME280;58212;47.034;7.376;2023-11-19T00:28:52;95737.28;;;4.43;94.25
56374;BME280;58212;47.034;7.376;2023-11-19T00:31:19;95728.34;;;4.37;94.71
56374;BME280;58212;47.034;7.376;2023-11-19T00:33:45;95732.84;;;4.43;95.15
56374;BME280;58212;47.034;7.376;2023-11-19T00:36:12;95737.22;;;4.36;94.27
56374;BME280;58212;47.034;7.376;2023-11-19T00:38:39;95730.56;;;4.40;94.59
56374;BME280;58212;47.034;7.376;2023-11-19T00:41:07;95724.34;;;4.41;94.24
56374;BME280;58212;47.034;7.376;2023-11-19T00:43:34;95737.34;;;4.50;94.60
56374;BME280;58212;47.034;7.376;2023-11-19T00:46:00;95723.94;;;4.59;94.44
56374;BME280;58212;47.034;7.376;2023-11-19T00:48:28;95717.31;;;4.63;94.55
56374;BME280;58212;47.034;7.376;2023-11-19T00:50:54;95713.38;;;4.74;94.67
56374;BME280;58212;47.034;7.376;2023-11-19T00:53:21;95716.63;;;4.76;94.75
56374;BME280;58212;47.034;7.376;2023-11-19T00:55:48;95707.25;;;4.88;94.66
56374;BME280;58212;47.034;7.376;2023-11-19T00:58:16;95697.00;;;4.93;94.92
56374;BME280;58212;47.034;7.376;2023-11-19T01:00:46;95693.88;;;5.04;94.47
56374;BME280;58212;47.034;7.376;2023-11-19T01:03:13;95692.78;;;5.20;94.45
56374;BME280;58212;47.034;7.376;2023-11-19T01:05:41;95720.88;;;5.26;94.73
56374;BME280;58212;47.034;7.376;2023-11-19T01:08:09;95721.78;;;5.12;94.57
56374;BME280;58212;47.034;7.376;2023-11-19T01:10:36;95719.53;;;5.09;94.10
56374;BME280;58212;47.034;7.376;2023-11-19T01:13:04;95709.44;;;5.06;93.89
56374;BME280;58212;47.034;7.376;2023-11-19T01:15:33;95707.69;;;5.13;94.09
56374;BME280;58212;47.034;7.376;2023-11-19T01:18:03;95703.66;;;5.17;93.62
56374;BME280;58212;47.034;7.376;2023-11-19T01:20:31;95697.41;;;5.18;93.30
56374;BME280;58212;47.034;7.376;2023-11-19T01:22:59;95695.72;;;5.31;93.51
56374;BME280;58212;47.034;7.376;2023-11-19T01:25:27;95707.50;;;5.49;93.87
56374;BME280;58212;47.034;7.376;2023-11-19T01:27:53;95716.75;;;5.38;94.26
56374;BME280;58212;47.034;7.376;2023-11-19T01:30:22;95717.72;;;5.37;93.28
56374;BME280;58212;47.034;7.376;2023-11-19T01:32:50;95718.78;;;5.43;93.07
56374;BME280;58212;47.034;7.376;2023-11-19T01:35:17;95709.69;;;5.38;93.19
56374;BME280;58212;47.034;7.376;2023-11-19T01:37:44;95709.53;;;5.47;93.53
56374;BME280;58212;47.034;7.376;2023-11-19T01:40:11;95694.53;;;5.40;93.25
56374;BME280;58212;47.034;7.376;2023-11-19T01:42:38;95688.88;;;5.71;93.13
56374;BME280;58212;47.034;7.376;2023-11-19T01:45:07;95661.78;;;5.64;93.10
56374;BME280;58212;47.034;7.376;2023-11-19T01:47:34;95655.72;;;5.64;93.07
56374;BME280;58212;47.034;7.376;2023-11-19T01:50:06;95645.63;;;5.67;93.72
56374;BME280;58212;47.034;7.376;2023-11-19T01:52:33;95652.47;;;6.03;93.95
56374;BME280;58212;47.034;7.376;2023-11-19T01:55:03;95638.84;;;7.19;90.84
56374;BME280;58212;47.034;7.376;2023-11-19T01:57:30;95649.38;;;7.06;89.61
56374;BME280;58212;47.034;7.376;2023-11-19T01:59:57;95650.38;;;6.59;91.11
56374;BME280;58212;47.034;7.376;2023-11-19T02:02:25;95660.44;;;6.29;91.70
56374;BME280;58212;47.034;7.376;2023-11-19T02:04:56;95660.69;;;7.32;91.05
56374;BME280;58212;47.034;7.376;2023-11-19T02:07:24;95652.72;;;7.52;89.30
56374;BME280;58212;47.034;7.376;2023-11-19T02:09:51;95648.56;;;6.92;89.36
56374;BME280;58212;47.034;7.376;2023-11-19T02:12:18;95652.81;;;6.73;90.11
56374;BME280;58212;47.034;7.376;2023-11-19T02:14:45;95655.84;;;6.77;91.20
56374;BME280;58212;47.034;7.376;2023-11-19T02:17:25;95660.91;;;6.72;90.93
56374;BME280;58212;47.034;7.376;2023-11-19T02:19:52;95660.44;;;6.42;91.19
56374;BME280;58212;47.034;7.376;2023-11-19T02:22:21;95654.13;;;6.17;91.97
56374;BME280;58212;47.034;7.376;2023-11-19T02:24:51;95648.44;;;6.13;92.38
56374;BME280;58212;47.034;7.376;2023-11-19T02:27:28;95651.47;;;6.10;92.53
56374;BME280;58212;47.034;7.376;2023-11-19T02:29:58;95656.34;;;6.13;92.85
56374;BME280;58212;47.034;7.376;2023-11-19T02:32:27;95637.13;;;6.06;92.89
56374;BME280;58212;47.034;7.376;2023-11-19T02:34:56;95639.34;;;6.09;93.13
56374;BME280;58212;47.034;7.376;2023-11-19T02:37:22;95631.84;;;6.06;93.85
56374;BME280;58212;47.034;7.376;2023-11-19T02:39:49;95620.16;;;6.09;94.18
56374;BME280;58212;47.034;7.376;2023-11-19T02:42:16;95624.41;;;6.10;93.88
56374;BME280;58212;47.034;7.376;2023-11-19T02:44:44;95619.75;;;6.05;93.94
56374;BME280;58212;47.034;7.376;2023-11-19T02:47:12;95612.25;;;6.02;94.29
56374;BME280;58212;47.034;7.376;2023-11-19T02:49:38;95619.34;;;6.08;94.24
56374;BME280;58212;47.034;7.376;2023-11-19T02:52:06;95620.53;;;6.06;94.52
56374;BME280;58212;47.034;7.376;2023-11-19T02:54:36;95612.88;;;6.04;94.24
56374;BME280;58212;47.034;7.376;2023-11-19T02:57:03;95621.97;;;6.08;94.22
56374;BME280;58212;47.034;7.376;2023-11-19T02:59:30;95594.09;;;6.07;93.96
56374;BME280;58212;47.034;7.376;2023-11-19T03:02:04;95588.41;;;6.04;94.53
56374;BME280;58212;47.034;7.376;2023-11-19T03:04:33;95587.59;;;6.03;94.75
56374;BME280;58212;47.034;7.376;2023-11-19T03:07:00;95588.88;;;6.27;95.10
56374;BME280;58212;47.034;7.376;2023-11-19T03:09:28;95585.66;;;6.45;94.29
56374;BME280;58212;47.034;7.376;2023-11-19T03:11:55;95584.25;;;6.55;94.46
56374;BME280;58212;47.034;7.376;2023-11-19T03:14:22;95591.91;;;6.76;94.73
56374;BME280;58212;47.034;7.376;2023-11-19T03:16:49;95590.72;;;6.85;94.30
56374;BME280;58212;47.034;7.376;2023-11-19T03:19:17;95584.81;;;7.10;92.41
56374;BME280;58212;47.034;7.376;2023-11-19T03:21:46;95590.69;;;6.99;91.77
56374;BME280;58212;47.034;7.376;2023-11-19T03:24:13;95589.47;;;7.01;92.41
56374;BME280;58212;47.034;7.376;2023-11-19T03:26:41;95585.19;;;7.13;91.81
56374;BME280;58212;47.034;7.376;2023-11-19T03:29:09;95588.84;;;7.12;91.86
56374;BME280;58212;47.034;7.376;2023-11-19T03:31:36;95584.00;;;7.09;91.71
56374;BME280;58212;47.034;7.376;2023-11-19T03:34:04;95575.94;;;7.04;93.10
56374;BME280;58212;47.034;7.376;2023-11-19T03:36:33;95576.72;;;7.11;92.85
56374;BME280;58212;47.034;7.376;2023-11-19T03:39:02;95578.31;;;7.12;93.38
56374;BME280;58212;47.034;7.376;2023-11-19T03:41:29;95578.34;;;7.06;93.03
56374;BME280;58212;47.034;7.376;2023-11-19T03:43:58;95572.91;;;7.01;93.12
56374;BME280;58212;47.034;7.376;2023-11-19T03:46:24;95576.31;;;7.01;93.30
56374;BME280;58212;47.034;7.376;2023-11-19T03:48:51;95575.69;;;7.06;92.98
56374;BME280;58212;47.034;7.376;2023-11-19T03:51:17;95581.38;;;7.03;93.37
56374;BME280;58212;47.034;7.376;2023-11-19T03:53:45;95577.13;;;6.95;93.00
56374;BME280;58212;47.034;7.376;2023-11-19T03:56:14;95578.56;;;6.91;93.20
56374;BME280;58212;47.034;7.376;2023-11-19T03:58:40;95594.75;;;6.88;93.76
56374;BME280;58212;47.034;7.376;2023-11-19T04:01:11;95604.47;;;6.87;93.88
56374;BME280;58212;47.034;7.376;2023-11-19T04:03:39;95602.66;;;6.88;94.27
56374;BME280;58212;47.034;7.376;2023-11-19T04:06:06;95609.94;;;6.86;94.73
56374;BME280;58212;47.034;7.376;2023-11-19T04:08:34;95616.78;;;6.87;94.59
56374;BME280;58212;47.034;7.376;2023-11-19T04:11:02;95626.13;;;6.90;94.74
56374;BME280;58212;47.034;7.376;2023-11-19T04:13:30;95616.19;;;6.92;94.36
56374;BME280;58212;47.034;7.376;2023-11-19T04:15:57;95618.41;;;6.95;94.54
56374;BME280;58212;47.034;7.376;2023-11-19T04:18:23;95638.44;;;7.02;94.26
56374;BME280;58212;47.034;7.376;2023-11-19T04:20:50;95634.59;;;7.05;94.06
56374;BME280;58212;47.034;7.376;2023-11-19T04:23:17;95655.03;;;7.03;93.97
56374;BME280;58212;47.034;7.376;2023-11-19T04:25:43;95659.31;;;7.04;93.77
56374;BME280;58212;47.034;7.376;2023-11-19T04:28:10;95656.44;;;7.05;94.05
56374;BME280;58212;47.034;7.376;2023-11-19T04:30:41;95658.06;;;7.13;94.02
56374;BME280;58212;47.034;7.376;2023-11-19T04:33:08;95648.94;;;7.28;94.08
56374;BME280;58212;47.034;7.376;2023-11-19T04:35:34;95651.34;;;7.50;94.02
56374;BME280;58212;47.034;7.376;2023-11-19T04:38:01;95659.84;;;7.38;93.97
56374;BME280;58212;47.034;7.376;2023-11-19T04:40:28;95657.81;;;7.47;94.56
56374;BME280;58212;47.034;7.376;2023-11-19T04:42:55;95649.06;;;7.60;94.76
56374;BME280;58212;47.034;7.376;2023-11-19T04:45:22;95646.69;;;7.52;94.55
56374;BME280;58212;47.034;7.376;2023-11-19T04:47:50;95652.56;;;7.47;94.79
56374;BME280;58212;47.034;7.376;2023-11-19T04:50:16;95648.69;;;7.63;95.33
56374;BME280;58212;47.034;7.376;2023-11-19T04:52:44;95639.19;;;7.55;95.07
56374;BME280;58212;47.034;7.376;2023-11-19T04:55:12;95645.44;;;7.54;95.58
56374;BME280;58212;47.034;7.376;2023-11-19T04:57:39;95638.69;;;7.78;95.70
56374;BME280;58212;47.034;7.376;2023-11-19T05:00:07;95644.59;;;7.67;95.64
56374;BME280;58212;47.034;7.376;2023-11-19T05:02:35;95640.16;;;7.61;95.61
56374;BME280;58212;47.034;7.376;2023-11-19T05:05:04;95626.81;;;7.62;96.20
56374;BME280;58212;47.034;7.376;2023-11-19T05:07:31;95623.34;;;7.62;96.25
56374;BME280;58212;47.034;7.376;2023-11-19T05:09:58;95624.59;;;8.04;96.37
56374;BME280;58212;47.034;7.376;2023-11-19T05:12:25;95625.41;;;8.04;96.21
56374;BME280;58212;47.034;7.376;2023-11-19T05:14:52;95637.88;;;8.22;96.80
56374;BME280;58212;47.034;7.376;2023-11-19T05:17:19;95629.16;;;8.28;96.53
56374;BME280;58212;47.034;7.376;2023-11-19T05:19:45;95639.75;;;8.15;96.21
56374;BME280;58212;47.034;7.376;2023-11-19T05:22:14;95632.34;;;8.37;96.52
56374;BME280;58212;47.034;7.376;2023-11-19T05:24:41;95637.59;;;8.43;95.97
56374;BME280;58212;47.034;7.376;2023-11-19T05:27:08;95635.25;;;8.60;94.76
56374;BME280;58212;47.034;7.376;2023-11-19T05:29:36;95635.88;;;8.62;94.49
56374;BME280;58212;47.034;7.376;2023-11-19T05:32:04;95625.69;;;8.65;94.48
56374;BME280;58212;47.034;7.376;2023-11-19T05:34:31;95626.28;;;8.67;94.01
56374;BME280;58212;47.034;7.376;2023-11-19T05:36:57;95628.72;;;8.62;94.47
56374;BME280;58212;47.034;7.376;2023-11-19T05:39:25;95633.25;;;8.55;94.75
56374;BME280;58212;47.034;7.376;2023-11-19T05:41:52;95623.84;;;8.66;94.97
56374;BME280;58212;47.034;7.376;2023-11-19T05:44:19;95598.94;;;8.87;94.29
56374;BME280;58212;47.034;7.376;2023-11-19T05:46:45;95600.06;;;8.97;94.23
56374;BME280;58212;47.034;7.376;2023-11-19T05:49:12;95593.31;;;9.01;94.61
56374;BME280;58212;47.034;7.376;2023-11-19T05:51:39;95599.47;;;8.95;94.90
56374;BME280;58212;47.034;7.376;2023-11-19T05:54:07;95602.53;;;8.92;95.21
56374;BME280;58212;47.034;7.376;2023-11-19T05:56:35;95600.97;;;9.09;95.19
56374;BME280;58212;47.034;7.376;2023-11-19T05:59:02;95601.88;;;8.97;94.78
56374;BME280;58212;47.034;7.376;2023-11-19T06:01:32;95606.66;;;9.06;95.10
56374;BME280;58212;47.034;7.376;2023-11-19T06:03:59;95610.13;;;9.07;94.75
56374;BME280;58212;47.034;7.376;2023-11-19T06:06:26;95617.63;;;9.10;94.69
56374;BME280;58212;47.034;7.376;2023-11-19T06:08:52;95630.50;;;9.24;94.46
56374;BME280;58212;47.034;7.376;2023-11-19T06:11:20;95635.44;;;9.14;93.76
56374;BME280;58212;47.034;7.376;2023-11-19T06:13:48;95622.13;;;9.27;93.67
56374;BME280;58212;47.034;7.376;2023-11-19T06:16:15;95633.91;;;9.25;93.58
56374;BME280;58212;47.034;7.376;2023-11-19T06:18:42;95636.47;;;9.13;93.25
56374;BME280;58212;47.034;7.376;2023-11-19T06:21:09;95635.69;;;9.06;94.25
56374;BME280;58212;47.034;7.376;2023-11-19T06:23:36;95635.56;;;9.01;94.02
56374;BME280;58212;47.034;7.376;2023-11-19T06:26:03;95650.81;;;9.24;94.46
56374;BME280;58212;47.034;7.376;2023-11-19T06:28:30;95636.25;;;9.15;94.64
56374;BME280;58212;47.034;7.376;2023-11-19T06:30:58;95641.91;;;9.18;94.86
56374;BME280;58212;47.034;7.376;2023-11-19T06:33:25;95633.50;;;9.28;95.59
56374;BME280;58212;47.034;7.376;2023-11-19T06:35:52;95640.59;;;9.27;95.69
56374;BME280;58212;47.034;7.376;2023-11-19T06:38:20;95631.88;;;9.27;95.44
56374;BME280;58212;47.034;7.376;2023-11-19T06:40:46;95627.84;;;9.24;95.39
56374;BME280;58212;47.034;7.376;2023-11-19T06:43:13;95621.09;;;9.28;95.53
56374;BME280;58212;47.034;7.376;2023-11-19T06:45:41;95605.50;;;9.45;95.84
56374;BME280;58212;47.034;7.376;2023-11-19T06:48:09;95605.69;;;9.44;95.88
56374;BME280;58212;47.034;7.376;2023-11-19T06:50:35;95592.72;;;9.60;95.89
56374;BME280;58212;47.034;7.376;2023-11-19T06:53:02;95584.19;;;9.76;96.27
56374;BME280;58212;47.034;7.376;2023-11-19T06:55:30;95596.00;;;9.74;96.34
56374;BME280;58212;47.034;7.376;2023-11-19T06:57:59;95594.84;;;9.70;96.01
56374;BME280;58212;47.034;7.376;2023-11-19T07:00:27;95609.06;;;9.69;95.72
56374;BME280;58212;47.034;7.376;2023-11-19T07:02:54;95615.97;;;9.70;96.13
56374;BME280;58212;47.034;7.376;2023-11-19T07:05:22;95625.28;;;9.72;96.06
56374;BME280;58212;47.034;7.376;2023-11-19T07:07:49;95625.59;;;9.82;95.54
56374;BME280;58212;47.034;7.376;2023-11-19T07:10:16;95643.75;;;9.79;95.18
56374;BME280;58212;47.034;7.376;2023-11-19T07:12:43;95635.22;;;9.77;95.79
56374;BME280;58212;47.034;7.376;2023-11-19T07:15:10;95642.13;;;9.78;95.79
56374;BME280;58212;47.034;7.376;2023-11-19T07:17:38;95630.88;;;9.82;96.11
56374;BME280;58212;47.034;7.376;2023-11-19T07:20:06;95638.59;;;9.84;96.21
56374;BME280;58212;47.034;7.376;2023-11-19T07:22:34;95632.94;;;9.80;95.82
56374;BME280;58212;47.034;7.376;2023-11-19T07:25:00;95633.53;;;9.82;95.83
56374;BME280;58212;47.034;7.376;2023-11-19T07:27:27;95645.13;;;9.81;96.19
56374;BME280;58212;47.034;7.376;2023-11-19T07:29:54;95643.66;;;9.86;96.60
56374;BME280;58212;47.034;7.376;2023-11-19T07:32:21;95650.63;;;9.80;96.17
56374;BME280;58212;47.034;7.376;2023-11-19T07:34:48;95653.13;;;9.75;96.54
56374;BME280;58212;47.034;7.376;2023-11-19T07:37:14;95647.41;;;9.78;96.14
56374;BME280;58212;47.034;7.376;2023-11-19T07:39:43;95630.53;;;9.79;96.46
56374;BME280;58212;47.034;7.376;2023-11-19T07:42:10;95615.16;;;9.69;96.60
56374;BME280;58212;47.034;7.376;2023-11-19T07:44:36;95622.97;;;9.82;96.49
56374;BME280;58212;47.034;7.376;2023-11-19T07:47:03;95615.25;;;9.81;96.15
56374;BME280;58212;47.034;7.376;2023-11-19T07:49:30;95632.00;;;9.75;96.32
56374;BME280;58212;47.034;7.376;2023-11-19T07:51:57;95630.66;;;9.84;96.16
56374;BME280;58212;47.034;7.376;2023-11-19T07:54:23;95630.00;;;9.89;95.92
56374;BME280;58212;47.034;7.376;2023-11-19T07:56:51;95641.00;;;9.86;96.04
56374;BME280;58212;47.034;7.376;2023-11-19T07:59:18;95638.19;;;9.99;95.57
56374;BME280;58212;47.034;7.376;2023-11-19T08:01:45;95650.50;;;9.93;95.32
56374;BME280;58212;47.034;7.376;2023-11-19T08:04:11;95660.03;;;9.94;95.42
56374;BME280;58212;47.034;7.376;2023-11-19T08:06:38;95661.13;;;10.05;94.93
56374;BME280;58212;47.034;7.376;2023-11-19T08:09:05;95647.97;;;9.98;95.03
56374;BME280;58212;47.034;7.376;2023-11-19T08:11:39;95647.19;;;9.98;95.30
56374;BME280;58212;47.034;7.376;2023-11-19T08:14:07;95654.59;;;10.07;94.72
56374;BME280;58212;47.034;7.376;2023-11-19T08:16:34;95658.69;;;10.03;95.11
56374;BME280;58212;47.034;7.376;2023-11-19T08:19:03;95657.31;;;10.19;94.89
56374;BME280;58212;47.034;7.376;2023-11-19T08:21:30;95650.47;;;10.11;94.63
56374;BME280;58212;47.034;7.376;2023-11-19T08:23:57;95655.13;;;10.16;94.39
56374;BME280;58212;47.034;7.376;2023-11-19T08:26:24;95645.03;;;10.06;94.06
56374;BME280;58212;47.034;7.376;2023-11-19T08:28:50;95645.94;;;10.18;94.23
56374;BME280;58212;47.034;7.376;2023-11-19T08:31:20;95657.78;;;10.16;94.81
56374;BME280;58212;47.034;7.376;2023-11-19T08:33:47;95666.63;;;10.21;94.43
56374;BME280;58212;47.034;7.376;2023-11-19T08:36:16;95665.03;;;10.20;94.30
56374;BME280;58212;47.034;7.376;2023-11-19T08:38:43;95671.94;;;10.21;94.80
56374;BME280;58212;47.034;7.376;2023-11-19T08:41:10;95666.72;;;10.15;95.04
56374;BME280;58212;47.034;7.376;2023-11-19T08:43:36;95674.25;;;10.11;94.63
56374;BME280;58212;47.034;7.376;2023-11-19T08:46:04;95673.25;;;10.31;94.52
56374;BME280;58212;47.034;7.376;2023-11-19T08:48:37;95668.38;;;10.27;94.29
56374;BME280;58212;47.034;7.376;2023-11-19T08:51:04;95657.38;;;10.31;93.37
56374;BME280;58212;47.034;7.376;2023-11-19T08:53:31;95657.38;;;10.31;94.35
56374;BME280;58212;47.034;7.376;2023-11-19T08:55:58;95659.44;;;10.28;94.32
56374;BME280;58212;47.034;7.376;2023-11-19T08:58:28;95667.59;;;10.27;94.28
56374;BME280;58212;47.034;7.376;2023-11-19T09:00:54;95669.72;;;10.37;93.93
56374;BME280;58212;47.034;7.376;2023-11-19T09:03:21;95675.75;;;10.25;93.90
56374;BME280;58212;47.034;7.376;2023-11-19T09:05:49;95682.72;;;10.20;94.31
56374;BME280;58212;47.034;7.376;2023-11-19T09:08:16;95681.13;;;10.19;95.06
56374;BME280;58212;47.034;7.376;2023-11-19T09:10:43;95682.50;;;10.21;94.76
56374;BME280;58212;47.034;7.376;2023-11-19T09:13:10;95682.59;;;10.15;94.57
56374;BME280;58212;47.034;7.376;2023-11-19T09:15:36;95678.69;;;10.17;95.14
56374;BME280;58212;47.034;7.376;2023-11-19T09:18:03;95665.72;;;10.16;94.91
56374;BME280;58212;47.034;7.376;2023-11-19T09:20:30;95674.13;;;10.24;95.38
56374;BME280;58212;47.034;7.376;2023-11-19T09:23:05;95670.31;;;10.20;95.26
56374;BME280;58212;47.034;7.376;2023-11-19T09:25:31;95673.47;;;10.29;96.04
56374;BME280;58212;47.034;7.376;2023-11-19T09:27:58;95677.06;;;10.35;95.27
56374;BME280;58212;47.034;7.376;2023-11-19T09:30:25;95673.47;;;10.29;95.41
56374;BME280;58212;47.034;7.376;2023-11-19T09:32:51;95680.22;;;10.25;95.76
56374;BME280;58212;47.034;7.376;2023-11-19T09:35:18;95672.56;;;10.35;96.10
56374;BME280;58212;47.034;7.376;2023-11-19T09:37:45;95675.22;;;10.35;95.78
56374;BME280;58212;47.034;7.376;2023-11-19T09:40:13;95675.41;;;10.52;95.29
56374;BME280;58212;47.034;7.376;2023-11-19T09:42:43;95674.75;;;10.56;94.99
56374;BME280;58212;47.034;7.376;2023-11-19T09:45:14;95672.47;;;10.60;94.46
56374;BME280;58212;47.034;7.376;2023-11-19T09:47:43;95676.03;;;10.65;94.70
56374;BME280;58212;47.034;7.376;2023-11-19T09:50:14;95665.69;;;10.64;94.51
56374;BME280;58212;47.034;7.376;2023-11-19T09:52:42;95664.53;;;10.71;93.64
56374;BME280;58212;47.034;7.376;2023-11-19T09:55:08;95667.63;;;10.68;93.69
56374;BME280;58212;47.034;7.376;2023-11-19T09:57:38;95672.13;;;10.68;94.43
56374;BME280;58212;47.034;7.376;2023-11-19T10:00:06;95659.16;;;10.78;93.83
56374;BME280;58212;47.034;7.376;2023-11-19T10:02:34;95654.66;;;10.67;93.85
56374;BME280;58212;47.034;7.376;2023-11-19T10:05:06;95651.84;;;10.62;93.95
56374;BME280;58212;47.034;7.376;2023-11-19T10:07:34;95647.88;;;10.71;94.40
56374;BME280;58212;47.034;7.376;2023-11-19T10:10:01;95642.34;;;10.72;93.94
56374;BME280;58212;47.034;7.376;2023-11-19T10:12:29;95637.63;;;10.86;92.85
56374;BME280;58212;47.034;7.376;2023-11-19T10:14:58;95634.34;;;11.02;92.13
56374;BME280;58212;47.034;7.376;2023-11-19T10:17:27;95625.13;;;11.05;92.37
56374;BME280;58212;47.034;7.376;2023-11-19T10:19:55;95625.25;;;11.10;91.19
56374;BME280;58212;47.034;7.376;2023-11-19T10:22:22;95626.88;;;11.34;91.08
56374;BME280;58212;47.034;7.376;2023-11-19T10:24:49;95626.88;;;11.46;89.97
56374;BME280;58212;47.034;7.376;2023-11-19T10:27:16;95622.72;;;11.61;90.25
56374;BME280;58212;47.034;7.376;2023-11-19T10:29:45;95618.91;;;11.69;89.15
56374;BME280;58212;47.034;7.376;2023-11-19T10:32:13;95613.94;;;11.61;89.96
56374;BME280;58212;47.034;7.376;2023-11-19T10:34:40;95623.28;;;11.75;90.05
56374;BME280;58212;47.034;7.376;2023-11-19T10:37:08;95619.94;;;11.80;89.34
56374;BME280;58212;47.034;7.376;2023-11-19T10:39:51;95617.31;;;11.80;88.92
56374;BME280;58212;47.034;7.376;2023-11-19T10:42:20;95621.66;;;11.86;88.70
56374;BME280;58212;47.034;7.376;2023-11-19T10:44:46;95621.31;;;11.94;89.19
56374;BME280;58212;47.034;7.376;2023-11-19T10:47:15;95629.41;;;11.87;88.57
56374;BME280;58212;47.034;7.376;2023-11-19T10:49:43;95628.59;;;11.75;89.30
56374;BME280;58212;47.034;7.376;2023-11-19T10:52:11;95612.22;;;11.78;89.12
56374;BME280;58212;47.034;7.376;2023-11-19T10:54:44;95610.72;;;11.82;89.15
56374;BME280;58212;47.034;7.376;2023-11-19T10:57:12;95606.81;;;11.85;88.99
56374;BME280;58212;47.034;7.376;2023-11-19T10:59:43;95619.94;;;11.80;89.08
56374;BME280;58212;47.034;7.376;2023-11-19T11:02:16;95609.41;;;11.96;87.66
56374;BME280;58212;47.034;7.376;2023-11-19T11:04:47;95608.50;;;12.02;87.55
56374;BME280;58212;47.034;7.376;2023-11-19T11:07:14;95609.88;;;11.93;87.94
56374;BME280;58212;47.034;7.376;2023-11-19T11:09:43;95609.91;;;11.82;88.14
56374;BME280;58212;47.034;7.376;2023-11-19T11:12:12;95606.41;;;12.04;87.76
56374;BME280;58212;47.034;7.376;2023-11-19T11:14:39;95613.44;;;12.10;87.33
56374;BME280;58212;47.034;7.376;2023-11-19T11:17:09;95605.69;;;12.09;87.68
56374;BME280;58212;47.034;7.376;2023-11-19T11:19:41;95600.88;;;12.06;87.15
56374;BME280;58212;47.034;7.376;2023-11-19T11:22:09;95599.44;;;12.15;86.48
56374;BME280;58212;47.034;7.376;2023-11-19T11:28:05;95605.03;;;12.30;86.55
56374;BME280;58212;47.034;7.376;2023-11-19T11:30:49;95603.22;;;12.19;87.12
56374;BME280;58212;47.034;7.376;2023-11-19T11:33:29;95595.88;;;12.38;85.96
56374;BME280;58212;47.034;7.376;2023-11-19T11:36:12;95596.91;;;12.37;86.16
56374;BME280;58212;47.034;7.376;2023-11-19T11:38:41;95597.59;;;12.15;86.62
56374;BME280;58212;47.034;7.376;2023-11-19T11:41:19;95590.47;;;12.04;87.43
56374;BME280;58212;47.034;7.376;2023-11-19T11:43:47;95590.97;;;12.01;87.22
56374;BME280;58212;47.034;7.376;2023-11-19T11:49:25;95593.47;;;12.08;87.39
56374;BME280;58212;47.034;7.376;2023-11-19T11:52:01;95598.56;;;11.98;88.44
56374;BME280;58212;47.034;7.376;2023-11-19T11:54:31;95602.28;;;11.85;89.14
56374;BME280;58212;47.034;7.376;2023-11-19T11:57:06;95593.44;;;11.80;90.28
56374;BME280;58212;47.034;7.376;2023-11-19T11:59:37;95602.41;;;11.79;91.25
56374;BME280;58212;47.034;7.376;2023-11-19T12:02:04;95607.50;;;11.68;91.72
56374;BME280;58212;47.034;7.376;2023-11-19T12:04:31;95609.25;;;11.63;91.84
56374;BME280;58212;47.034;7.376;2023-11-19T12:07:06;95608.19;;;11.52;92.44
56374;BME280;58212;47.034;7.376;2023-11-19T12:09:33;95609.00;;;11.53;93.49
56374;BME280;58212;47.034;7.376;2023-11-19T12:12:18;95598.88;;;11.50;93.57
56374;BME280;58212;47.034;7.376;2023-11-19T12:15:01;95606.94;;;11.43;93.50
56374;BME280;58212;47.034;7.376;2023-11-19T12:17:46;95603.81;;;11.46;94.57
56374;BME280;58212;47.034;7.376;2023-11-19T12:20:19;95598.19;;;11.43;93.51
56374;BME280;58212;47.034;7.376;2023-11-19T12:22:48;95592.06;;;11.42;93.33
56374;BME280;58212;47.034;7.376;2023-11-19T12:25:18;95593.91;;;11.42;93.52
56374;BME280;58212;47.034;7.376;2023-11-19T12:27:46;95599.34;;;11.47;94.00
56374;BME280;58212;47.034;7.376;2023-11-19T12:30:17;95602.00;;;11.47;93.71
56374;BME280;58212;47.034;7.376;2023-11-19T12:32:45;95606.34;;;11.41;94.32
56374;BME280;58212;47.034;7.376;2023-11-19T12:35:12;95611.66;;;11.41;94.31
56374;BME280;58212;47.034;7.376;2023-11-19T12:37:43;95613.41;;;11.36;94.14
56374;BME280;58212;47.034;7.376;2023-11-19T12:40:14;95613.53;;;11.41;94.24
56374;BME280;58212;47.034;7.376;2023-11-19T12:42:41;95612.94;;;11.39;94.05
56374;BME280;58212;47.034;7.376;2023-11-19T12:45:08;95615.84;;;11.37;94.74
56374;BME280;58212;47.034;7.376;2023-11-19T12:47:36;95617.53;;;11.32;95.02
56374;BME280;58212;47.034;7.376;2023-11-19T12:50:04;95613.75;;;11.27;95.34
56374;BME280;58212;47.034;7.376;2023-11-19T12:52:32;95607.16;;;11.30;95.86
56374;BME280;58212;47.034;7.376;2023-11-19T12:54:58;95594.50;;;11.32;96.05
56374;BME280;58212;47.034;7.376;2023-11-19T12:57:37;95588.88;;;11.28;96.09
56374;BME280;58212;47.034;7.376;2023-11-19T13:00:05;95575.38;;;11.30;96.29
56374;BME280;58212;47.034;7.376;2023-11-19T13:02:45;95572.03;;;11.35;95.93
56374;BME280;58212;47.034;7.376;2023-11-19T13:05:26;95568.13;;;11.37;95.53
56374;BME280;58212;47.034;7.376;2023-11-19T13:07:59;95578.34;;;11.45;95.41
56374;BME280;58212;47.034;7.376;2023-11-19T13:10:26;95564.41;;;11.50;95.11
56374;BME280;58212;47.034;7.376;2023-11-19T13:13:04;95577.66;;;11.50;95.26
56374;BME280;58212;47.034;7.376;2023-11-19T13:15:32;95567.88;;;11.50;94.98
56374;BME280;58212;47.034;7.376;2023-11-19T13:17:59;95570.53;;;11.50;94.50
56374;BME280;58212;47.034;7.376;2023-11-19T13:20:26;95558.22;;;11.44;94.45